Details From LFMN - Nice/Cote d'Azur
To LIPO - Montichiari
Flight Number -
Tags generated
Created
Modified
Stats Distance 171 nm / 316 km
Max Altitude 21,300 ft / 6,492 m
Waypoints 3
Social Downloads 0
Likes 0
Share VATSIM

Download

Looking for another format? Having issues loading an existing format? Contact us
Advertisement - Login to hide

Notes

Basic altitude profile: - Ascent Rate: 2500ft/min - Ascent Speed: 250kts - Cruise Altitude: 35000ft - Cruise Speed: 420kts - Descent Rate: 1500ft/min - Descent Speed: 250kts Options: - Use NATs: yes - Use PACOTS: yes - Use low airways: yes - Use high airways: yes

Route

LFMN LAGEN LIPO

ID Type Via Altitude Latitude Longitude Leg Dist Tot Dist Heading (true) Name
O LFMN APT - 0 ft / 0 m 43.65798˚ 7.21536˚ - 0 nm - Nice/Cote d'Azur
LAGEN FIX - 21,300 ft / 6,492 m 44.39417˚ 8.49806˚ 70 nm 70 nm 51° / 52° -
O LIPO APT - 0 ft / 0 m 45.42855˚ 10.33128˚ 99 nm 170 nm 51° / 52° Montichiari

Altitude Profile

Advertisement - Login to hide

Weather


0- 5 10 15 20 25 30 35+ Temperature / ° C

Clouds and Precipitation
Forecast for 2017-12-17 18:00 UTC. Updated an hour ago

Ground ~20,000 ft ~40,000 ft Winds

LFMN

Details ICAO LFMN (NCE)
Name Nice/Cote d'Azur
Region France
Timezone Unknown (UTC+0.0)
Stats Elevation 12 ft / 4 m (AMSL)
Location 43.657981° 7.215362°
Runways 2
Magnetic Variation 2.017° E

METAR

LFMN 171400Z 19004KT 150V250 9999 FEW030 12/M00 Q1018 NOSIG

Decode

TAF

TAF LFMN 170800Z 1709/1815 33010KT 9999 FEW030 BECMG 1711/1713 18010KT BECMG 1717/1719 33010KT BECMG 1810/1812 09010KT FEW040 BKN120

Decode

Departure Runways

ID Width Length Bearing (true) Bearing (mag) Surface Threshold Offset Overrun Length
04L 148 ft / 45 m 8,427 ft / 2,569 m 44.85° 42.83° Asphalt 0 ft / 0 m 131 ft / 40 m
04R 148 ft / 45 m 9,720 ft / 2,963 m 44.60° 42.58° Asphalt 0 ft / 0 m 427 ft / 130 m
22L 148 ft / 45 m 9,720 ft / 2,963 m 224.62° 222.60° Asphalt 0 ft / 0 m 525 ft / 160 m
22R 148 ft / 45 m 8,427 ft / 2,569 m 224.87° 222.85° Asphalt 0 ft / 0 m 492 ft / 150 m

LIPO

Details ICAO LIPO (VBS)
Name Montichiari
Region Italy
Timezone Europe/Rome (UTC+1.0)
Stats Elevation 344 ft / 105 m (AMSL)
Location 45.428548° 10.331283°
Runways 1
Magnetic Variation 2.739° E

METAR

LIPO 171350Z 25004KT CAVOK 06/01 Q1019

Decode

TAF

TAF LIPO 171100Z 1712/1812 29005KT CAVOK TEMPO 1804/1808 0600 FG

Decode

Destination Runways

ID Width Length Bearing (true) Bearing (mag) Surface Threshold Offset Overrun Length
14 154 ft / 47 m 9,821 ft / 2,993 m 134.99° 132.25° Asphalt 984 ft / 300 m 0 ft / 0 m
32 154 ft / 47 m 9,821 ft / 2,993 m 315.01° 312.27° Asphalt 623 ft / 190 m 0 ft / 0 m

Approach Navaids

Runway Type Ident Frequency Range Bearing (true) Bearing (mag) Slope Elevation
32 Localiser IBS 110.55 MHz 18 nm / 33 km 315.02° 312.29° - 356 ft / 109 m (AMSL)
32 Glidescope IBS 110.55 MHz 10 nm / 19 km 315.00° 312.26° 3.00° 356 ft / 109 m (AMSL)
32 DME IBS 110.55 MHz 25 nm / 46 km - - - 356 ft / 109 m (AMSL)

Popular Alternatives